sensor_id;sensor_type;location;lat;lon;timestamp;temperature;humidity
13960;DHT22;7052;51.050;3.716;2023-06-24T00:00:15;19.00;97.20
13960;DHT22;7052;51.050;3.716;2023-06-24T00:02:44;18.90;97.40
13960;DHT22;7052;51.050;3.716;2023-06-24T00:05:13;18.90;97.70
13960;DHT22;7052;51.050;3.716;2023-06-24T00:07:40;18.90;97.80
13960;DHT22;7052;51.050;3.716;2023-06-24T00:10:13;18.90;97.90
13960;DHT22;7052;51.050;3.716;2023-06-24T00:12:40;18.90;97.90
13960;DHT22;7052;51.050;3.716;2023-06-24T00:15:08;18.80;97.90
13960;DHT22;7052;51.050;3.716;2023-06-24T00:17:35;18.80;98.00
13960;DHT22;7052;51.050;3.716;2023-06-24T00:20:03;18.80;98.10
13960;DHT22;7052;51.050;3.716;2023-06-24T00:22:36;18.70;98.20
13960;DHT22;7052;51.050;3.716;2023-06-24T00:25:10;18.70;98.40
13960;DHT22;7052;51.050;3.716;2023-06-24T00:27:38;18.60;98.50
13960;DHT22;7052;51.050;3.716;2023-06-24T00:30:06;18.60;98.60
13960;DHT22;7052;51.050;3.716;2023-06-24T00:32:34;18.50;98.70
13960;DHT22;7052;51.050;3.716;2023-06-24T00:35:05;18.50;98.90
13960;DHT22;7052;51.050;3.716;2023-06-24T00:37:31;18.40;99.00
13960;DHT22;7052;51.050;3.716;2023-06-24T00:40:00;18.40;99.10
13960;DHT22;7052;51.050;3.716;2023-06-24T00:42:27;18.40;99.10
13960;DHT22;7052;51.050;3.716;2023-06-24T00:44:56;18.40;99.10
13960;DHT22;7052;51.050;3.716;2023-06-24T00:47:23;18.40;99.20
13960;DHT22;7052;51.050;3.716;2023-06-24T00:49:50;18.30;99.20
13960;DHT22;7052;51.050;3.716;2023-06-24T00:52:20;18.30;99.20
13960;DHT22;7052;51.050;3.716;2023-06-24T00:54:47;18.20;99.10
13960;DHT22;7052;51.050;3.716;2023-06-24T00:57:13;18.20;99.20
13960;DHT22;7052;51.050;3.716;2023-06-24T00:59:42;18.20;99.30
13960;DHT22;7052;51.050;3.716;2023-06-24T01:02:11;18.10;99.40
13960;DHT22;7052;51.050;3.716;2023-06-24T01:04:38;18.10;99.40
13960;DHT22;7052;51.050;3.716;2023-06-24T01:07:06;18.10;99.80
13960;DHT22;7052;51.050;3.716;2023-06-24T01:09:33;18.10;99.60
13960;DHT22;7052;51.050;3.716;2023-06-24T01:12:01;18.10;99.70
13960;DHT22;7052;51.050;3.716;2023-06-24T01:14:29;18.10;99.80
13960;DHT22;7052;51.050;3.716;2023-06-24T01:17:00;18.10;99.80
13960;DHT22;7052;51.050;3.716;2023-06-24T01:22:54;18.10;99.90
13960;DHT22;7052;51.050;3.716;2023-06-24T01:25:41;18.10;99.90
13960;DHT22;7052;51.050;3.716;2023-06-24T01:28:23;18.10;99.90
13960;DHT22;7052;51.050;3.716;2023-06-24T01:34:18;18.10;99.90
13960;DHT22;7052;51.050;3.716;2023-06-24T01:36:51;18.00;99.90
13960;DHT22;7052;51.050;3.716;2023-06-24T01:39:22;18.00;99.90
13960;DHT22;7052;51.050;3.716;2023-06-24T01:41:56;18.00;99.90
13960;DHT22;7052;51.050;3.716;2023-06-24T01:44:31;18.00;99.90
13960;DHT22;7052;51.050;3.716;2023-06-24T01:47:03;18.00;99.90
13960;DHT22;7052;51.050;3.716;2023-06-24T01:49:37;17.90;99.90
13960;DHT22;7052;51.050;3.716;2023-06-24T01:52:07;17.90;99.90
13960;DHT22;7052;51.050;3.716;2023-06-24T01:54:38;17.90;99.90
13960;DHT22;7052;51.050;3.716;2023-06-24T01:57:08;17.80;99.90
13960;DHT22;7052;51.050;3.716;2023-06-24T01:59:38;17.80;99.90
13960;DHT22;7052;51.050;3.716;2023-06-24T02:02:07;17.80;99.90
13960;DHT22;7052;51.050;3.716;2023-06-24T02:04:36;17.80;99.90
13960;DHT22;7052;51.050;3.716;2023-06-24T02:07:06;17.80;99.90
13960;DHT22;7052;51.050;3.716;2023-06-24T02:09:36;17.70;99.90
13960;DHT22;7052;51.050;3.716;2023-06-24T02:12:06;17.70;99.90
13960;DHT22;7052;51.050;3.716;2023-06-24T02:14:37;17.70;99.90
13960;DHT22;7052;51.050;3.716;2023-06-24T02:17:06;17.60;99.90
13960;DHT22;7052;51.050;3.716;2023-06-24T02:19:36;17.60;99.90
13960;DHT22;7052;51.050;3.716;2023-06-24T02:22:05;17.50;99.90
13960;DHT22;7052;51.050;3.716;2023-06-24T02:24:36;17.50;99.90
13960;DHT22;7052;51.050;3.716;2023-06-24T02:27:04;17.50;99.90
13960;DHT22;7052;51.050;3.716;2023-06-24T02:29:32;17.40;99.90
13960;DHT22;7052;51.050;3.716;2023-06-24T02:32:00;17.40;99.90
13960;DHT22;7052;51.050;3.716;2023-06-24T02:34:27;17.30;99.90
13960;DHT22;7052;51.050;3.716;2023-06-24T02:36:56;17.30;99.90
13960;DHT22;7052;51.050;3.716;2023-06-24T02:39:23;17.30;99.90
13960;DHT22;7052;51.050;3.716;2023-06-24T02:41:50;17.30;99.90
13960;DHT22;7052;51.050;3.716;2023-06-24T02:44:17;17.20;99.90
13960;DHT22;7052;51.050;3.716;2023-06-24T02:46:53;17.20;99.90
13960;DHT22;7052;51.050;3.716;2023-06-24T02:49:23;17.20;99.90
13960;DHT22;7052;51.050;3.716;2023-06-24T02:51:50;17.20;99.90
13960;DHT22;7052;51.050;3.716;2023-06-24T02:54:19;17.10;99.90
13960;DHT22;7052;51.050;3.716;2023-06-24T02:56:47;17.10;99.90
13960;DHT22;7052;51.050;3.716;2023-06-24T02:59:14;17.10;99.90
13960;DHT22;7052;51.050;3.716;2023-06-24T03:01:42;17.00;99.90
13960;DHT22;7052;51.050;3.716;2023-06-24T03:04:10;17.00;99.90
13960;DHT22;7052;51.050;3.716;2023-06-24T03:06:42;17.00;99.90
13960;DHT22;7052;51.050;3.716;2023-06-24T03:09:11;17.00;99.90
13960;DHT22;7052;51.050;3.716;2023-06-24T03:11:42;17.00;99.90
13960;DHT22;7052;51.050;3.716;2023-06-24T03:14:10;16.90;99.90
13960;DHT22;7052;51.050;3.716;2023-06-24T03:16:37;16.90;99.90
13960;DHT22;7052;51.050;3.716;2023-06-24T03:19:04;16.90;99.90
13960;DHT22;7052;51.050;3.716;2023-06-24T03:21:33;16.90;99.90
13960;DHT22;7052;51.050;3.716;2023-06-24T03:24:05;16.90;99.90
13960;DHT22;7052;51.050;3.716;2023-06-24T03:26:33;16.80;99.90
13960;DHT22;7052;51.050;3.716;2023-06-24T03:29:02;16.80;99.90
13960;DHT22;7052;51.050;3.716;2023-06-24T03:31:30;16.80;99.90
13960;DHT22;7052;51.050;3.716;2023-06-24T03:33:57;16.80;99.90
13960;DHT22;7052;51.050;3.716;2023-06-24T03:36:24;16.80;99.90
13960;DHT22;7052;51.050;3.716;2023-06-24T03:38:51;16.70;99.90
13960;DHT22;7052;51.050;3.716;2023-06-24T03:41:18;16.70;99.90
13960;DHT22;7052;51.050;3.716;2023-06-24T03:43:45;16.70;99.90
13960;DHT22;7052;51.050;3.716;2023-06-24T03:46:14;16.70;99.90
13960;DHT22;7052;51.050;3.716;2023-06-24T03:48:41;16.60;99.90
13960;DHT22;7052;51.050;3.716;2023-06-24T03:51:08;16.60;99.90
13960;DHT22;7052;51.050;3.716;2023-06-24T03:53:39;16.60;99.90
13960;DHT22;7052;51.050;3.716;2023-06-24T03:56:06;16.60;99.90
13960;DHT22;7052;51.050;3.716;2023-06-24T03:58:33;16.60;99.90
13960;DHT22;7052;51.050;3.716;2023-06-24T04:01:02;16.50;99.90
13960;DHT22;7052;51.050;3.716;2023-06-24T04:03:32;16.60;99.90
13960;DHT22;7052;51.050;3.716;2023-06-24T04:05:59;16.60;99.90
13960;DHT22;7052;51.050;3.716;2023-06-24T04:08:27;16.60;99.90
13960;DHT22;7052;51.050;3.716;2023-06-24T04:10:56;16.60;99.90
13960;DHT22;7052;51.050;3.716;2023-06-24T04:13:24;16.60;99.90
13960;DHT22;7052;51.050;3.716;2023-06-24T04:15:51;16.60;99.90
13960;DHT22;7052;51.050;3.716;2023-06-24T04:18:20;16.60;99.90
13960;DHT22;7052;51.050;3.716;2023-06-24T04:20:51;16.70;99.90
13960;DHT22;7052;51.050;3.716;2023-06-24T04:23:18;16.70;99.90
13960;DHT22;7052;51.050;3.716;2023-06-24T04:25:46;16.70;99.90
13960;DHT22;7052;51.050;3.716;2023-06-24T04:28:13;16.70;99.90
13960;DHT22;7052;51.050;3.716;2023-06-24T04:30:40;16.70;99.90
13960;DHT22;7052;51.050;3.716;2023-06-24T04:33:07;16.70;99.90
13960;DHT22;7052;51.050;3.716;2023-06-24T04:35:35;16.70;99.90
13960;DHT22;7052;51.050;3.716;2023-06-24T04:38:04;16.70;99.90
13960;DHT22;7052;51.050;3.716;2023-06-24T04:40:33;16.80;99.90
13960;DHT22;7052;51.050;3.716;2023-06-24T04:43:00;16.80;99.90
13960;DHT22;7052;51.050;3.716;2023-06-24T04:45:26;16.80;99.90
13960;DHT22;7052;51.050;3.716;2023-06-24T04:47:54;16.80;99.90
13960;DHT22;7052;51.050;3.716;2023-06-24T04:50:22;16.90;99.90
13960;DHT22;7052;51.050;3.716;2023-06-24T04:52:52;16.90;99.90
13960;DHT22;7052;51.050;3.716;2023-06-24T04:55:22;16.90;99.90
13960;DHT22;7052;51.050;3.716;2023-06-24T04:57:49;17.00;99.90
13960;DHT22;7052;51.050;3.716;2023-06-24T05:00:16;17.00;99.90
13960;DHT22;7052;51.050;3.716;2023-06-24T05:02:43;17.00;99.90
13960;DHT22;7052;51.050;3.716;2023-06-24T05:05:10;17.10;99.90
13960;DHT22;7052;51.050;3.716;2023-06-24T05:07:37;17.10;99.90
13960;DHT22;7052;51.050;3.716;2023-06-24T05:10:05;17.10;99.90
13960;DHT22;7052;51.050;3.716;2023-06-24T05:12:34;17.10;99.90
13960;DHT22;7052;51.050;3.716;2023-06-24T05:15:03;17.20;99.90
13960;DHT22;7052;51.050;3.716;2023-06-24T05:17:30;17.20;99.90
13960;DHT22;7052;51.050;3.716;2023-06-24T05:19:57;17.30;99.90
13960;DHT22;7052;51.050;3.716;2023-06-24T05:22:24;17.30;99.90
13960;DHT22;7052;51.050;3.716;2023-06-24T05:24:52;17.30;99.90
13960;DHT22;7052;51.050;3.716;2023-06-24T05:27:22;17.30;99.90
13960;DHT22;7052;51.050;3.716;2023-06-24T05:29:51;17.30;99.90
13960;DHT22;7052;51.050;3.716;2023-06-24T05:32:20;17.40;99.90
13960;DHT22;7052;51.050;3.716;2023-06-24T05:34:49;17.40;99.90
13960;DHT22;7052;51.050;3.716;2023-06-24T05:37:18;17.50;99.90
13960;DHT22;7052;51.050;3.716;2023-06-24T05:39:45;17.50;99.90
13960;DHT22;7052;51.050;3.716;2023-06-24T05:42:13;17.60;99.90
13960;DHT22;7052;51.050;3.716;2023-06-24T05:44:40;17.60;99.90
13960;DHT22;7052;51.050;3.716;2023-06-24T05:47:09;17.60;99.90
13960;DHT22;7052;51.050;3.716;2023-06-24T05:49:39;17.60;99.90
13960;DHT22;7052;51.050;3.716;2023-06-24T05:52:06;17.60;99.90
13960;DHT22;7052;51.050;3.716;2023-06-24T05:54:33;17.60;99.90
13960;DHT22;7052;51.050;3.716;2023-06-24T05:57:00;17.70;99.90
13960;DHT22;7052;51.050;3.716;2023-06-24T05:59:32;17.70;99.90
13960;DHT22;7052;51.050;3.716;2023-06-24T06:01:59;17.80;99.90
13960;DHT22;7052;51.050;3.716;2023-06-24T06:04:31;18.00;99.90
13960;DHT22;7052;51.050;3.716;2023-06-24T06:06:58;18.80;99.90
13960;DHT22;7052;51.050;3.716;2023-06-24T06:09:27;19.80;99.90
13960;DHT22;7052;51.050;3.716;2023-06-24T06:11:54;20.80;99.90
13960;DHT22;7052;51.050;3.716;2023-06-24T06:14:21;21.80;96.40
13960;DHT22;7052;51.050;3.716;2023-06-24T06:16:48;22.30;93.80
13960;DHT22;7052;51.050;3.716;2023-06-24T06:19:15;22.90;90.90
13960;DHT22;7052;51.050;3.716;2023-06-24T06:21:44;23.40;83.80
13960;DHT22;7052;51.050;3.716;2023-06-24T06:24:11;23.60;78.70
13960;DHT22;7052;51.050;3.716;2023-06-24T06:26:41;24.00;77.00
13960;DHT22;7052;51.050;3.716;2023-06-24T06:29:10;24.20;73.50
13960;DHT22;7052;51.050;3.716;2023-06-24T06:31:37;24.30;72.40
13960;DHT22;7052;51.050;3.716;2023-06-24T06:34:04;24.40;70.10
13960;DHT22;7052;51.050;3.716;2023-06-24T06:36:31;24.20;71.70
13960;DHT22;7052;51.050;3.716;2023-06-24T06:39:01;24.40;71.30
13960;DHT22;7052;51.050;3.716;2023-06-24T06:41:28;24.70;69.30
13960;DHT22;7052;51.050;3.716;2023-06-24T06:43:56;24.80;68.50
13960;DHT22;7052;51.050;3.716;2023-06-24T06:46:23;24.90;67.90
13960;DHT22;7052;51.050;3.716;2023-06-24T06:48:51;24.80;66.60
13960;DHT22;7052;51.050;3.716;2023-06-24T06:51:18;24.90;64.90
13960;DHT22;7052;51.050;3.716;2023-06-24T06:53:45;24.70;67.10
13960;DHT22;7052;51.050;3.716;2023-06-24T06:56:18;24.70;67.50
13960;DHT22;7052;51.050;3.716;2023-06-24T06:58:45;24.60;67.70
13960;DHT22;7052;51.050;3.716;2023-06-24T07:01:12;24.50;68.80
13960;DHT22;7052;51.050;3.716;2023-06-24T07:03:39;24.60;68.70
13960;DHT22;7052;51.050;3.716;2023-06-24T07:06:06;24.70;69.00
13960;DHT22;7052;51.050;3.716;2023-06-24T07:08:34;24.70;68.20
13960;DHT22;7052;51.050;3.716;2023-06-24T07:11:01;24.80;67.70
13960;DHT22;7052;51.050;3.716;2023-06-24T07:13:29;24.90;67.10
13960;DHT22;7052;51.050;3.716;2023-06-24T07:15:56;25.20;66.20
13960;DHT22;7052;51.050;3.716;2023-06-24T07:18:24;25.40;65.00
13960;DHT22;7052;51.050;3.716;2023-06-24T07:20:56;25.60;62.80
13960;DHT22;7052;51.050;3.716;2023-06-24T07:23:23;25.60;62.40
13960;DHT22;7052;51.050;3.716;2023-06-24T07:25:52;25.60;62.90
13960;DHT22;7052;51.050;3.716;2023-06-24T07:28:20;25.60;62.80
13960;DHT22;7052;51.050;3.716;2023-06-24T07:30:48;25.70;62.40
13960;DHT22;7052;51.050;3.716;2023-06-24T07:33:15;25.70;62.30
13960;DHT22;7052;51.050;3.716;2023-06-24T07:35:45;25.80;62.00
13960;DHT22;7052;51.050;3.716;2023-06-24T07:38:12;25.90;61.30
13960;DHT22;7052;51.050;3.716;2023-06-24T07:40:39;25.90;60.70
13960;DHT22;7052;51.050;3.716;2023-06-24T07:43:06;25.50;63.00
13960;DHT22;7052;51.050;3.716;2023-06-24T07:45:36;25.40;64.20
13960;DHT22;7052;51.050;3.716;2023-06-24T07:48:05;25.30;64.30
13960;DHT22;7052;51.050;3.716;2023-06-24T07:50:35;25.30;65.30
13960;DHT22;7052;51.050;3.716;2023-06-24T07:53:03;25.20;66.00
13960;DHT22;7052;51.050;3.716;2023-06-24T07:55:31;25.20;65.70
13960;DHT22;7052;51.050;3.716;2023-06-24T07:58:01;25.10;67.00
13960;DHT22;7052;51.050;3.716;2023-06-24T08:00:28;25.00;67.40
13960;DHT22;7052;51.050;3.716;2023-06-24T08:02:56;25.00;68.00
13960;DHT22;7052;51.050;3.716;2023-06-24T08:05:25;24.90;68.30
13960;DHT22;7052;51.050;3.716;2023-06-24T08:07:54;24.70;69.60
13960;DHT22;7052;51.050;3.716;2023-06-24T08:10:21;24.60;71.60
13960;DHT22;7052;51.050;3.716;2023-06-24T08:12:48;24.60;71.80
13960;DHT22;7052;51.050;3.716;2023-06-24T08:15:15;24.60;73.00
13960;DHT22;7052;51.050;3.716;2023-06-24T08:17:42;24.50;73.20
13960;DHT22;7052;51.050;3.716;2023-06-24T08:20:10;24.40;74.00
13960;DHT22;7052;51.050;3.716;2023-06-24T08:22:39;24.30;75.40
13960;DHT22;7052;51.050;3.716;2023-06-24T08:25:07;24.10;77.00
13960;DHT22;7052;51.050;3.716;2023-06-24T08:27:35;24.00;78.80
13960;DHT22;7052;51.050;3.716;2023-06-24T08:30:06;24.10;78.60
13960;DHT22;7052;51.050;3.716;2023-06-24T08:32:33;24.00;77.90
13960;DHT22;7052;51.050;3.716;2023-06-24T08:34:59;24.00;77.50
13960;DHT22;7052;51.050;3.716;2023-06-24T08:37:27;24.00;77.60
13960;DHT22;7052;51.050;3.716;2023-06-24T08:39:55;24.00;77.20
13960;DHT22;7052;51.050;3.716;2023-06-24T08:42:23;24.00;77.40
13960;DHT22;7052;51.050;3.716;2023-06-24T08:44:50;23.90;76.30
13960;DHT22;7052;51.050;3.716;2023-06-24T08:47:18;23.90;80.60
13960;DHT22;7052;51.050;3.716;2023-06-24T08:49:48;24.00;77.20
13960;DHT22;7052;51.050;3.716;2023-06-24T08:52:16;24.00;73.40
13960;DHT22;7052;51.050;3.716;2023-06-24T08:54:50;24.00;74.70
13960;DHT22;7052;51.050;3.716;2023-06-24T08:57:21;24.00;76.70
13960;DHT22;7052;51.050;3.716;2023-06-24T08:59:50;24.10;76.20
13960;DHT22;7052;51.050;3.716;2023-06-24T09:02:18;24.20;72.60
13960;DHT22;7052;51.050;3.716;2023-06-24T09:04:45;24.20;70.30
13960;DHT22;7052;51.050;3.716;2023-06-24T09:07:12;24.30;72.20
13960;DHT22;7052;51.050;3.716;2023-06-24T09:09:44;24.30;72.40
13960;DHT22;7052;51.050;3.716;2023-06-24T09:12:13;24.40;72.50
13960;DHT22;7052;51.050;3.716;2023-06-24T09:14:48;24.50;70.30
13960;DHT22;7052;51.050;3.716;2023-06-24T09:17:16;24.50;71.90
13960;DHT22;7052;51.050;3.716;2023-06-24T09:19:47;24.60;72.60
13960;DHT22;7052;51.050;3.716;2023-06-24T09:22:15;24.60;72.70
13960;DHT22;7052;51.050;3.716;2023-06-24T09:24:48;24.70;71.00
13960;DHT22;7052;51.050;3.716;2023-06-24T09:27:16;24.70;69.10
13960;DHT22;7052;51.050;3.716;2023-06-24T09:29:47;24.80;68.40
13960;DHT22;7052;51.050;3.716;2023-06-24T09:32:15;24.90;67.90
13960;DHT22;7052;51.050;3.716;2023-06-24T09:34:43;24.90;65.80
13960;DHT22;7052;51.050;3.716;2023-06-24T09:37:22;24.90;65.20
13960;DHT22;7052;51.050;3.716;2023-06-24T09:39:49;25.00;66.20
13960;DHT22;7052;51.050;3.716;2023-06-24T09:42:21;25.10;65.90
13960;DHT22;7052;51.050;3.716;2023-06-24T09:44:54;25.10;66.00
13960;DHT22;7052;51.050;3.716;2023-06-24T09:47:21;25.20;65.30
13960;DHT22;7052;51.050;3.716;2023-06-24T09:49:51;25.30;61.50
13960;DHT22;7052;51.050;3.716;2023-06-24T09:52:21;25.30;59.80
13960;DHT22;7052;51.050;3.716;2023-06-24T09:54:52;25.30;60.30
13960;DHT22;7052;51.050;3.716;2023-06-24T09:57:27;25.30;58.80
13960;DHT22;7052;51.050;3.716;2023-06-24T10:00:03;25.30;58.20
13960;DHT22;7052;51.050;3.716;2023-06-24T10:02:33;25.40;57.70
13960;DHT22;7052;51.050;3.716;2023-06-24T10:05:00;25.50;57.90
13960;DHT22;7052;51.050;3.716;2023-06-24T10:07:31;25.50;56.10
13960;DHT22;7052;51.050;3.716;2023-06-24T10:10:01;25.60;55.30
13960;DHT22;7052;51.050;3.716;2023-06-24T10:12:29;25.60;55.90
13960;DHT22;7052;51.050;3.716;2023-06-24T10:15:02;25.60;55.80
13960;DHT22;7052;51.050;3.716;2023-06-24T10:17:30;25.60;55.20
13960;DHT22;7052;51.050;3.716;2023-06-24T10:19:56;25.70;55.50
13960;DHT22;7052;51.050;3.716;2023-06-24T10:22:24;25.70;54.50
13960;DHT22;7052;51.050;3.716;2023-06-24T10:25:00;25.90;53.20
13960;DHT22;7052;51.050;3.716;2023-06-24T10:27:29;25.90;52.90
13960;DHT22;7052;51.050;3.716;2023-06-24T10:30:03;25.90;54.10
13960;DHT22;7052;51.050;3.716;2023-06-24T10:32:40;26.00;53.90
13960;DHT22;7052;51.050;3.716;2023-06-24T10:35:23;26.00;54.30
13960;DHT22;7052;51.050;3.716;2023-06-24T10:37:55;26.20;53.60
13960;DHT22;7052;51.050;3.716;2023-06-24T10:40:38;26.30;52.50
13960;DHT22;7052;51.050;3.716;2023-06-24T10:43:25;26.40;52.40
13960;DHT22;7052;51.050;3.716;2023-06-24T10:45:55;26.50;52.90
13960;DHT22;7052;51.050;3.716;2023-06-24T10:48:23;26.60;53.10
13960;DHT22;7052;51.050;3.716;2023-06-24T10:50:51;26.60;53.20
13960;DHT22;7052;51.050;3.716;2023-06-24T10:53:21;26.60;53.30
13960;DHT22;7052;51.050;3.716;2023-06-24T10:55:50;26.80;51.30
13960;DHT22;7052;51.050;3.716;2023-06-24T10:58:17;26.80;50.70
13960;DHT22;7052;51.050;3.716;2023-06-24T11:00:45;26.70;50.10
13960;DHT22;7052;51.050;3.716;2023-06-24T11:03:14;26.80;51.40
13960;DHT22;7052;51.050;3.716;2023-06-24T11:05:43;26.80;52.20
13960;DHT22;7052;51.050;3.716;2023-06-24T11:08:14;26.90;52.20
13960;DHT22;7052;51.050;3.716;2023-06-24T11:10:44;27.00;51.70
13960;DHT22;7052;51.050;3.716;2023-06-24T11:13:12;27.00;51.40
13960;DHT22;7052;51.050;3.716;2023-06-24T11:15:40;27.10;51.20
13960;DHT22;7052;51.050;3.716;2023-06-24T11:18:08;27.10;50.70
13960;DHT22;7052;51.050;3.716;2023-06-24T11:20:40;27.10;50.20
13960;DHT22;7052;51.050;3.716;2023-06-24T11:23:10;27.20;49.50
13960;DHT22;7052;51.050;3.716;2023-06-24T11:25:41;27.20;50.90
13960;DHT22;7052;51.050;3.716;2023-06-24T11:28:13;27.20;50.60
13960;DHT22;7052;51.050;3.716;2023-06-24T11:30:40;27.30;49.30
13960;DHT22;7052;51.050;3.716;2023-06-24T11:33:08;27.30;50.50
13960;DHT22;7052;51.050;3.716;2023-06-24T11:35:34;27.40;50.30
13960;DHT22;7052;51.050;3.716;2023-06-24T11:38:04;27.30;50.20
13960;DHT22;7052;51.050;3.716;2023-06-24T11:40:35;27.30;50.00
13960;DHT22;7052;51.050;3.716;2023-06-24T11:43:05;27.40;48.30
13960;DHT22;7052;51.050;3.716;2023-06-24T11:45:35;27.60;47.40
13960;DHT22;7052;51.050;3.716;2023-06-24T11:48:09;27.50;48.00
13960;DHT22;7052;51.050;3.716;2023-06-24T11:50:37;27.60;48.50
13960;DHT22;7052;51.050;3.716;2023-06-24T11:53:05;27.60;48.90
13960;DHT22;7052;51.050;3.716;2023-06-24T11:55:32;27.60;49.00
13960;DHT22;7052;51.050;3.716;2023-06-24T11:58:00;27.80;49.20
13960;DHT22;7052;51.050;3.716;2023-06-24T12:00:33;27.90;49.10
13960;DHT22;7052;51.050;3.716;2023-06-24T12:03:02;27.80;46.80
13960;DHT22;7052;51.050;3.716;2023-06-24T12:05:31;27.90;46.90
13960;DHT22;7052;51.050;3.716;2023-06-24T12:07:59;27.90;46.90
13960;DHT22;7052;51.050;3.716;2023-06-24T12:10:30;28.00;46.60
13960;DHT22;7052;51.050;3.716;2023-06-24T12:12:59;28.10;46.90
13960;DHT22;7052;51.050;3.716;2023-06-24T12:15:27;28.20;45.80
13960;DHT22;7052;51.050;3.716;2023-06-24T12:18:03;28.20;44.70
13960;DHT22;7052;51.050;3.716;2023-06-24T12:20:32;28.40;42.70
13960;DHT22;7052;51.050;3.716;2023-06-24T12:23:02;28.50;44.60
13960;DHT22;7052;51.050;3.716;2023-06-24T12:25:32;28.40;45.00
13960;DHT22;7052;51.050;3.716;2023-06-24T12:27:59;28.40;44.10
13960;DHT22;7052;51.050;3.716;2023-06-24T12:30:27;28.40;43.40
13960;DHT22;7052;51.050;3.716;2023-06-24T12:32:57;28.40;44.10
13960;DHT22;7052;51.050;3.716;2023-06-24T12:35:26;28.40;45.00
13960;DHT22;7052;51.050;3.716;2023-06-24T12:37:54;28.40;45.20
13960;DHT22;7052;51.050;3.716;2023-06-24T12:40:21;28.40;45.90
13960;DHT22;7052;51.050;3.716;2023-06-24T12:42:51;28.40;46.30
13960;DHT22;7052;51.050;3.716;2023-06-24T12:45:18;28.40;46.30
13960;DHT22;7052;51.050;3.716;2023-06-24T12:47:47;28.60;46.00
13960;DHT22;7052;51.050;3.716;2023-06-24T12:50:15;28.60;45.20
13960;DHT22;7052;51.050;3.716;2023-06-24T12:52:43;28.70;45.50
13960;DHT22;7052;51.050;3.716;2023-06-24T12:55:09;28.70;45.00
13960;DHT22;7052;51.050;3.716;2023-06-24T12:57:43;28.70;45.10
13960;DHT22;7052;51.050;3.716;2023-06-24T13:00:19;28.80;45.20
13960;DHT22;7052;51.050;3.716;2023-06-24T13:02:47;29.00;44.80
13960;DHT22;7052;51.050;3.716;2023-06-24T13:05:15;28.90;44.40
13960;DHT22;7052;51.050;3.716;2023-06-24T13:07:42;28.90;44.60
13960;DHT22;7052;51.050;3.716;2023-06-24T13:10:10;28.90;44.50
13960;DHT22;7052;51.050;3.716;2023-06-24T13:12:39;28.90;43.70
13960;DHT22;7052;51.050;3.716;2023-06-24T13:15:07;28.90;44.00
13960;DHT22;7052;51.050;3.716;2023-06-24T13:17:37;29.00;44.00
13960;DHT22;7052;51.050;3.716;2023-06-24T13:20:05;29.00;43.10
13960;DHT22;7052;51.050;3.716;2023-06-24T13:22:34;29.00;41.90
13960;DHT22;7052;51.050;3.716;2023-06-24T13:25:02;29.00;43.30
13960;DHT22;7052;51.050;3.716;2023-06-24T13:27:29;29.00;44.10
13960;DHT22;7052;51.050;3.716;2023-06-24T13:29:56;29.00;44.30
13960;DHT22;7052;51.050;3.716;2023-06-24T13:32:23;29.00;44.00
13960;DHT22;7052;51.050;3.716;2023-06-24T13:34:52;29.00;43.40
13960;DHT22;7052;51.050;3.716;2023-06-24T13:37:18;29.10;43.50
13960;DHT22;7052;51.050;3.716;2023-06-24T13:39:46;29.10;42.70
13960;DHT22;7052;51.050;3.716;2023-06-24T13:42:14;29.20;42.40
13960;DHT22;7052;51.050;3.716;2023-06-24T13:44:44;29.20;41.70
13960;DHT22;7052;51.050;3.716;2023-06-24T13:47:11;29.20;41.20
13960;DHT22;7052;51.050;3.716;2023-06-24T13:49:40;29.20;41.20
13960;DHT22;7052;51.050;3.716;2023-06-24T13:52:10;29.20;41.40
13960;DHT22;7052;51.050;3.716;2023-06-24T13:54:37;29.30;42.20
13960;DHT22;7052;51.050;3.716;2023-06-24T13:57:06;29.40;41.00
13960;DHT22;7052;51.050;3.716;2023-06-24T13:59:33;29.50;40.70
13960;DHT22;7052;51.050;3.716;2023-06-24T14:02:00;29.50;41.00
13960;DHT22;7052;51.050;3.716;2023-06-24T14:04:28;29.60;41.20
13960;DHT22;7052;51.050;3.716;2023-06-24T14:06:55;29.60;41.20
13960;DHT22;7052;51.050;3.716;2023-06-24T14:09:27;29.60;41.50
13960;DHT22;7052;51.050;3.716;2023-06-24T14:11:55;29.50;41.50
13960;DHT22;7052;51.050;3.716;2023-06-24T14:14:22;29.60;41.10
13960;DHT22;7052;51.050;3.716;2023-06-24T14:16:51;29.60;41.60
13960;DHT22;7052;51.050;3.716;2023-06-24T14:19:18;29.70;41.50
13960;DHT22;7052;51.050;3.716;2023-06-24T14:21:45;29.70;41.40
13960;DHT22;7052;51.050;3.716;2023-06-24T14:24:17;29.80;41.20
13960;DHT22;7052;51.050;3.716;2023-06-24T14:26:45;29.70;40.90
13960;DHT22;7052;51.050;3.716;2023-06-24T14:29:15;29.80;40.70
13960;DHT22;7052;51.050;3.716;2023-06-24T14:31:42;29.70;39.20
13960;DHT22;7052;51.050;3.716;2023-06-24T14:34:09;29.70;41.20
13960;DHT22;7052;51.050;3.716;2023-06-24T14:36:39;29.70;41.40
13960;DHT22;7052;51.050;3.716;2023-06-24T14:39:06;29.50;41.50
13960;DHT22;7052;51.050;3.716;2023-06-24T14:41:33;29.50;41.80
13960;DHT22;7052;51.050;3.716;2023-06-24T14:44:02;29.50;41.60
13960;DHT22;7052;51.050;3.716;2023-06-24T14:46:29;29.50;41.70
13960;DHT22;7052;51.050;3.716;2023-06-24T14:48:56;29.50;39.50
13960;DHT22;7052;51.050;3.716;2023-06-24T14:51:23;29.60;39.80
13960;DHT22;7052;51.050;3.716;2023-06-24T14:53:53;29.60;39.90
13960;DHT22;7052;51.050;3.716;2023-06-24T14:56:20;29.70;40.00
13960;DHT22;7052;51.050;3.716;2023-06-24T14:58:47;29.70;40.30
13960;DHT22;7052;51.050;3.716;2023-06-24T15:01:18;29.80;40.00
13960;DHT22;7052;51.050;3.716;2023-06-24T15:03:45;29.80;40.40
13960;DHT22;7052;51.050;3.716;2023-06-24T15:06:12;29.70;40.20
13960;DHT22;7052;51.050;3.716;2023-06-24T15:08:45;29.80;39.70
13960;DHT22;7052;51.050;3.716;2023-06-24T15:11:12;29.80;39.30
13960;DHT22;7052;51.050;3.716;2023-06-24T15:13:41;29.80;38.70
13960;DHT22;7052;51.050;3.716;2023-06-24T15:16:08;29.70;39.20
13960;DHT22;7052;51.050;3.716;2023-06-24T15:18:44;29.70;40.00
13960;DHT22;7052;51.050;3.716;2023-06-24T15:21:11;29.60;39.60
13960;DHT22;7052;51.050;3.716;2023-06-24T15:23:42;29.50;39.50
13960;DHT22;7052;51.050;3.716;2023-06-24T15:26:17;29.60;39.40
13960;DHT22;7052;51.050;3.716;2023-06-24T15:28:44;29.70;39.60
13960;DHT22;7052;51.050;3.716;2023-06-24T15:31:11;29.70;39.70
13960;DHT22;7052;51.050;3.716;2023-06-24T15:33:41;29.70;39.80
13960;DHT22;7052;51.050;3.716;2023-06-24T15:36:09;29.60;39.60
13960;DHT22;7052;51.050;3.716;2023-06-24T15:38:36;29.70;39.10
13960;DHT22;7052;51.050;3.716;2023-06-24T15:41:03;29.60;39.20
13960;DHT22;7052;51.050;3.716;2023-06-24T15:43:34;29.60;39.40
13960;DHT22;7052;51.050;3.716;2023-06-24T15:46:01;29.60;39.40
13960;DHT22;7052;51.050;3.716;2023-06-24T15:48:28;29.50;39.20
13960;DHT22;7052;51.050;3.716;2023-06-24T15:51:00;29.50;38.80
13960;DHT22;7052;51.050;3.716;2023-06-24T15:53:27;29.50;38.40
13960;DHT22;7052;51.050;3.716;2023-06-24T15:55:54;29.60;38.70
13960;DHT22;7052;51.050;3.716;2023-06-24T15:58:26;29.70;38.80
13960;DHT22;7052;51.050;3.716;2023-06-24T16:00:56;29.70;38.70